Time;durP1;ratioP1;P1;durP2;ratioP2;P2;SDS_P1;SDS_P2;PMS_P1;PMS_P2;Temp;Humidity;BMP_temperature;BMP_pressure;BME280_temperature;BME280_humidity;BME280_pressure;Samples;Min_cycle;Max_cycle;Signal;HPM_P1;HPM_P2
2022/11/19 00:01:50;;;;;;;2.03;0.80;;;;;;;;;;4979752;28;20042;-84
2022/11/19 00:04:16;;;;;;;0.85;0.70;;;;;;;;;;4986293;28;20030;-82
2022/11/19 00:06:43;;;;;;;2.75;0.88;;;;;;;;;;4997587;28;20034;-83
2022/11/19 00:09:13;;;;;;;1.23;0.65;;;;;;;;;;4999330;28;20436;-83
2022/11/19 00:14:23;;;;;;;3.58;0.95;;;;;;;;;;4999096;28;20172;-83
2022/11/19 00:16:49;;;;;;;1.67;0.80;;;;;;;;;;4999664;28;20484;-83
2022/11/19 00:19:15;;;;;;;1.42;0.80;;;;;;;;;;4981642;28;20027;-83
2022/11/19 00:21:44;;;;;;;2.28;0.82;;;;;;;;;;4978519;28;20046;-83
2022/11/19 00:24:10;;;;;;;6.20;1.25;;;;;;;;;;5000274;28;20022;-83
2022/11/19 00:26:37;;;;;;;1.88;0.90;;;;;;;;;;5002383;28;20049;-83
2022/11/19 00:29:03;;;;;;;0.88;0.80;;;;;;;;;;4988943;28;20023;-83
2022/11/19 00:31:29;;;;;;;6.60;1.00;;;;;;;;;;4985591;28;20045;-83
2022/11/19 00:33:55;;;;;;;1.55;1.08;;;;;;;;;;4981753;28;20034;-84
2022/11/19 00:36:22;;;;;;;2.38;1.08;;;;;;;;;;4996452;28;20481;-82
2022/11/19 00:38:48;;;;;;;3.10;1.05;;;;;;;;;;4995524;28;20105;-84
2022/11/19 00:41:14;;;;;;;2.22;1.10;;;;;;;;;;4994736;28;20077;-82
2022/11/19 00:43:46;;;;;;;0.95;0.82;;;;;;;;;;5002131;28;20041;-82
2022/11/19 00:46:12;;;;;;;2.17;1.33;;;;;;;;;;4990162;28;20312;-82
2022/11/19 00:48:38;;;;;;;2.42;1.02;;;;;;;;;;4986888;28;20030;-82
2022/11/19 00:51:05;;;;;;;1.50;1.40;;;;;;;;;;4998044;28;20126;-82
2022/11/19 00:53:33;;;;;;;2.22;1.10;;;;;;;;;;5003337;28;20097;-82
2022/11/19 00:56:00;;;;;;;2.95;1.27;;;;;;;;;;5000856;28;20034;-83
2022/11/19 00:58:27;;;;;;;5.53;2.58;;;;;;;;;;5005667;28;20049;-83
2022/11/19 01:00:53;;;;;;;2.55;1.20;;;;;;;;;;4998003;28;20088;-83
2022/11/19 01:03:19;;;;;;;3.85;1.85;;;;;;;;;;4985441;28;20058;-83
2022/11/19 01:05:45;;;;;;;2.03;1.27;;;;;;;;;;4984942;28;20038;-83
2022/11/19 01:08:11;;;;;;;2.25;1.30;;;;;;;;;;4987196;28;20034;-83
2022/11/19 01:10:37;;;;;;;3.30;1.65;;;;;;;;;;4991148;28;20114;-83
2022/11/19 01:15:48;;;;;;;2.03;1.67;;;;;;;;;;4985555;28;20082;-83
2022/11/19 01:18:15;;;;;;;2.17;1.90;;;;;;;;;;5004534;28;20029;-82
2022/11/19 01:20:41;;;;;;;4.82;1.80;;;;;;;;;;5000990;28;20038;-82
2022/11/19 01:23:07;;;;;;;3.75;1.98;;;;;;;;;;4997500;28;20029;-83
2022/11/19 01:25:33;;;;;;;5.05;2.15;;;;;;;;;;4984643;28;20023;-83
2022/11/19 01:27:59;;;;;;;4.07;2.28;;;;;;;;;;4990591;28;20038;-82
2022/11/19 01:30:25;;;;;;;3.17;1.42;;;;;;;;;;5001124;28;20034;-82
2022/11/19 01:32:51;;;;;;;4.75;2.13;;;;;;;;;;4990240;28;20085;-83
2022/11/19 01:35:17;;;;;;;6.53;2.08;;;;;;;;;;4984210;28;20046;-82
2022/11/19 01:37:43;;;;;;;3.08;1.50;;;;;;;;;;4982710;28;20026;-82
2022/11/19 01:40:10;;;;;;;3.20;2.08;;;;;;;;;;4983746;28;20030;-82
2022/11/19 01:42:49;;;;;;;3.78;2.00;;;;;;;;;;4994818;28;20100;-82
2022/11/19 01:45:18;;;;;;;6.22;1.90;;;;;;;;;;4993870;28;20400;-83
2022/11/19 01:47:44;;;;;;;3.33;2.10;;;;;;;;;;4982833;28;20391;-82
2022/11/19 01:50:10;;;;;;;1.85;1.52;;;;;;;;;;4983002;28;20030;-83
2022/11/19 01:52:38;;;;;;;3.67;1.80;;;;;;;;;;4983081;28;20135;-83
2022/11/19 01:55:05;;;;;;;2.22;1.65;;;;;;;;;;4988006;28;20097;-84
2022/11/19 01:57:31;;;;;;;2.78;1.90;;;;;;;;;;5000865;28;20109;-84
2022/11/19 01:59:57;;;;;;;3.97;1.85;;;;;;;;;;4995564;28;20038;-84
2022/11/19 02:02:23;;;;;;;4.85;2.53;;;;;;;;;;4989096;28;20015;-83
2022/11/19 02:04:50;;;;;;;5.05;2.08;;;;;;;;;;5011217;28;20025;-82
2022/11/19 02:07:17;;;;;;;5.78;2.35;;;;;;;;;;5018209;28;20030;-82
2022/11/19 02:09:43;;;;;;;2.90;2.08;;;;;;;;;;5017253;28;20086;-82
2022/11/19 02:12:22;;;;;;;4.10;2.20;;;;;;;;;;5001014;28;20019;-81
2022/11/19 02:15:07;;;;;;;4.13;1.95;;;;;;;;;;4998090;28;20038;-82
2022/11/19 02:17:33;;;;;;;6.28;2.00;;;;;;;;;;4998855;28;20026;-80
2022/11/19 02:19:59;;;;;;;6.45;2.10;;;;;;;;;;4998544;28;20031;-82
2022/11/19 02:22:37;;;;;;;2.17;1.70;;;;;;;;;;4993133;28;20110;-83
2022/11/19 02:25:39;;;;;;;3.88;1.85;;;;;;;;;;4995268;28;20038;-82
2022/11/19 02:28:14;;;;;;;3.78;2.20;;;;;;;;;;4925319;29;20089;-83
2022/11/19 02:30:42;;;;;;;4.38;2.00;;;;;;;;;;4980127;28;20049;-83
2022/11/19 02:33:24;;;;;;;2.35;1.77;;;;;;;;;;4989997;28;20031;-83
2022/11/19 02:36:00;;;;;;;4.07;1.88;;;;;;;;;;4993140;28;20037;-84
2022/11/19 02:38:41;;;;;;;2.92;1.75;;;;;;;;;;5006665;28;20053;-84
2022/11/19 02:41:32;;;;;;;3.30;1.52;;;;;;;;;;5005884;28;20036;-84
2022/11/19 02:44:57;;;;;;;5.05;1.60;;;;;;;;;;4968333;28;20043;-84
2022/11/19 02:46:43;;;;;;;3.70;1.63;;;;;;;;;;4985667;28;20110;-84
2022/11/19 02:49:10;;;;;;;3.40;1.50;;;;;;;;;;4984467;28;20611;-84
2022/11/19 02:51:36;;;;;;;3.08;1.70;;;;;;;;;;5001693;28;20049;-84
2022/11/19 02:54:04;;;;;;;3.78;1.50;;;;;;;;;;5007104;28;20034;-84
2022/11/19 02:56:50;;;;;;;3.00;1.30;;;;;;;;;;5006410;28;20026;-84
2022/11/19 03:04:49;;;;;;;3.03;1.48;;;;;;;;;;5017456;28;20045;-83
2022/11/19 03:07:17;;;;;;;1.30;1.20;;;;;;;;;;4997520;28;20039;-83
2022/11/19 03:09:54;;;;;;;6.90;1.58;;;;;;;;;;4987524;28;20035;-85
2022/11/19 03:12:39;;;;;;;2.97;1.10;;;;;;;;;;4984543;28;20022;-83
2022/11/19 03:17:54;;;;;;;1.92;0.98;;;;;;;;;;4985454;28;20058;-83
2022/11/19 03:20:26;;;;;;;3.00;1.17;;;;;;;;;;4997777;28;20026;-83
2022/11/19 03:22:55;;;;;;;1.77;1.65;;;;;;;;;;5016478;28;20029;-83
2022/11/19 03:25:44;;;;;;;1.70;1.05;;;;;;;;;;5010782;28;20050;-82
2022/11/19 03:28:16;;;;;;;2.25;0.93;;;;;;;;;;4989748;28;20058;-83
2022/11/19 03:30:43;;;;;;;3.28;1.15;;;;;;;;;;5004438;28;20656;-83
2022/11/19 03:33:31;;;;;;;1.25;0.50;;;;;;;;;;4989023;28;20511;-84
2022/11/19 03:36:29;;;;;;;2.13;1.00;;;;;;;;;;4991468;28;20027;-83
2022/11/19 03:38:57;;;;;;;1.90;1.20;;;;;;;;;;4945465;28;20078;-81
2022/11/19 03:41:25;;;;;;;3.22;1.00;;;;;;;;;;4997144;28;20098;-83
2022/11/19 03:43:53;;;;;;;2.20;1.00;;;;;;;;;;4997020;28;20027;-83
2022/11/19 03:46:19;;;;;;;4.45;0.80;;;;;;;;;;4986279;28;20035;-82
2022/11/19 03:48:47;;;;;;;2.03;0.70;;;;;;;;;;4985151;28;20035;-83
2022/11/19 03:51:15;;;;;;;4.05;1.27;;;;;;;;;;4991037;28;20031;-82
2022/11/19 03:53:41;;;;;;;2.47;0.63;;;;;;;;;;4988591;28;20113;-82
2022/11/19 03:56:09;;;;;;;1.10;0.60;;;;;;;;;;4986889;28;20372;-82
2022/11/19 03:58:43;;;;;;;1.33;0.70;;;;;;;;;;4983683;28;20031;-83
2022/11/19 04:01:09;;;;;;;2.90;0.85;;;;;;;;;;4987384;28;20099;-83
2022/11/19 04:03:35;;;;;;;2.97;0.80;;;;;;;;;;4991213;28;20014;-85
2022/11/19 04:06:02;;;;;;;1.27;0.60;;;;;;;;;;4986042;28;20098;-83
2022/11/19 04:08:28;;;;;;;1.60;0.70;;;;;;;;;;4987076;28;20058;-83
2022/11/19 04:10:54;;;;;;;1.17;0.60;;;;;;;;;;4991285;28;20117;-83
2022/11/19 04:13:20;;;;;;;1.00;0.70;;;;;;;;;;5013787;28;20066;-82
2022/11/19 04:15:46;;;;;;;1.30;0.85;;;;;;;;;;5011355;28;20022;-82
2022/11/19 04:18:12;;;;;;;1.80;0.65;;;;;;;;;;5002837;28;20066;-82
2022/11/19 04:20:38;;;;;;;3.90;0.80;;;;;;;;;;5002706;28;20014;-82
2022/11/19 04:23:04;;;;;;;3.22;0.70;;;;;;;;;;4999598;28;20061;-82
2022/11/19 04:25:30;;;;;;;1.50;1.00;;;;;;;;;;4999315;28;20030;-81
2022/11/19 04:27:57;;;;;;;0.73;0.45;;;;;;;;;;5009803;28;20463;-82
2022/11/19 04:30:23;;;;;;;1.67;1.05;;;;;;;;;;4997041;28;20518;-82
2022/11/19 04:32:49;;;;;;;1.67;0.85;;;;;;;;;;4999134;28;20538;-83
2022/11/19 04:35:20;;;;;;;3.55;1.08;;;;;;;;;;4975723;28;20039;-83
2022/11/19 04:37:46;;;;;;;3.13;0.90;;;;;;;;;;4996806;28;20054;-83
2022/11/19 04:40:12;;;;;;;1.88;0.63;;;;;;;;;;4986484;28;20106;-83
2022/11/19 04:42:38;;;;;;;1.90;0.60;;;;;;;;;;4992432;28;20062;-83
2022/11/19 04:45:04;;;;;;;0.85;0.63;;;;;;;;;;4995432;28;20029;-83
2022/11/19 04:47:30;;;;;;;5.60;3.75;;;;;;;;;;4996390;28;20064;-83
2022/11/19 04:49:57;;;;;;;6.00;3.10;;;;;;;;;;5005455;28;20034;-82
2022/11/19 04:52:23;;;;;;;3.25;2.28;;;;;;;;;;4997486;28;20038;-82
2022/11/19 04:54:49;;;;;;;4.00;1.20;;;;;;;;;;4987809;28;20037;-84
2022/11/19 04:57:15;;;;;;;3.42;0.82;;;;;;;;;;4994088;28;20121;-82
2022/11/19 04:59:41;;;;;;;1.33;0.70;;;;;;;;;;5005701;28;20034;-83
2022/11/19 05:02:07;;;;;;;1.08;0.60;;;;;;;;;;4990468;28;20010;-83
2022/11/19 05:04:33;;;;;;;3.33;0.77;;;;;;;;;;5003323;28;20357;-83
2022/11/19 05:06:59;;;;;;;1.95;0.60;;;;;;;;;;5010268;28;20033;-83
2022/11/19 05:09:25;;;;;;;1.98;0.55;;;;;;;;;;4990794;28;20058;-83
2022/11/19 05:11:51;;;;;;;1.02;0.60;;;;;;;;;;4989197;28;20026;-85
2022/11/19 05:14:17;;;;;;;3.22;0.80;;;;;;;;;;4984671;28;20042;-83
2022/11/19 05:16:43;;;;;;;1.30;0.68;;;;;;;;;;4984811;28;20026;-83
2022/11/19 05:19:09;;;;;;;1.40;0.47;;;;;;;;;;5003706;28;20031;-83
2022/11/19 05:21:35;;;;;;;1.52;0.80;;;;;;;;;;5002501;28;20038;-83
2022/11/19 05:24:01;;;;;;;1.35;0.70;;;;;;;;;;5005087;28;20117;-84
2022/11/19 05:26:27;;;;;;;1.55;0.90;;;;;;;;;;5002980;28;20026;-83
2022/11/19 05:28:53;;;;;;;1.65;0.90;;;;;;;;;;5004616;28;20030;-83
2022/11/19 05:31:19;;;;;;;0.85;0.68;;;;;;;;;;4990398;28;20086;-83
2022/11/19 05:33:45;;;;;;;1.48;0.85;;;;;;;;;;4985463;28;20074;-83
2022/11/19 05:36:11;;;;;;;3.05;0.73;;;;;;;;;;4984584;28;20129;-83
2022/11/19 05:38:37;;;;;;;1.88;0.52;;;;;;;;;;5004931;28;20027;-83
2022/11/19 05:41:03;;;;;;;1.65;0.70;;;;;;;;;;5005067;28;20090;-83
2022/11/19 05:43:29;;;;;;;0.35;0.35;;;;;;;;;;4995066;28;20030;-83
2022/11/19 05:45:58;;;;;;;0.52;0.52;;;;;;;;;;5002762;28;20330;-83
2022/11/19 05:48:24;;;;;;;1.02;0.60;;;;;;;;;;4996449;28;20093;-83
2022/11/19 05:50:50;;;;;;;1.30;0.77;;;;;;;;;;4984373;28;20034;-83
2022/11/19 05:53:16;;;;;;;1.35;0.50;;;;;;;;;;4996919;28;20027;-83
2022/11/19 05:55:42;;;;;;;1.83;0.90;;;;;;;;;;5003884;28;20034;-83
2022/11/19 05:58:08;;;;;;;1.30;1.20;;;;;;;;;;4996415;28;20037;-83
2022/11/19 06:00:34;;;;;;;1.52;1.02;;;;;;;;;;4984925;28;20035;-83
2022/11/19 06:03:00;;;;;;;1.92;0.90;;;;;;;;;;4989834;28;20038;-83
2022/11/19 06:05:26;;;;;;;1.02;0.88;;;;;;;;;;4989977;28;20656;-83
2022/11/19 06:07:52;;;;;;;3.65;1.20;;;;;;;;;;4989184;28;20054;-83
2022/11/19 06:10:18;;;;;;;1.05;0.80;;;;;;;;;;4986301;28;20143;-83
2022/11/19 06:12:44;;;;;;;2.78;1.10;;;;;;;;;;4998855;28;20042;-83
2022/11/19 06:15:10;;;;;;;0.82;0.73;;;;;;;;;;5004478;28;20198;-83
2022/11/19 06:17:36;;;;;;;1.02;0.90;;;;;;;;;;5001646;28;20045;-83
2022/11/19 06:20:02;;;;;;;1.80;1.00;;;;;;;;;;5004268;28;20030;-82
2022/11/19 06:22:28;;;;;;;1.02;0.80;;;;;;;;;;5001717;28;20026;-83
2022/11/19 06:24:54;;;;;;;2.83;0.88;;;;;;;;;;4993010;28;20099;-83
2022/11/19 06:27:21;;;;;;;0.90;0.90;;;;;;;;;;4989135;28;20035;-82
2022/11/19 06:29:47;;;;;;;1.70;0.70;;;;;;;;;;4987508;28;20050;-83
2022/11/19 06:32:13;;;;;;;3.38;1.40;;;;;;;;;;4985883;28;20033;-83
2022/11/19 06:34:39;;;;;;;2.13;0.88;;;;;;;;;;4995977;28;20042;-84
2022/11/19 06:37:05;;;;;;;0.70;0.70;;;;;;;;;;5002984;28;20057;-84
2022/11/19 06:39:31;;;;;;;1.45;0.77;;;;;;;;;;4998246;28;20058;-83
2022/11/19 06:42:34;;;;;;;0.75;0.60;;;;;;;;;;4992185;28;20045;-83
2022/11/19 06:44:43;;;;;;;0.98;0.70;;;;;;;;;;5010352;28;20030;-83
2022/11/19 06:47:09;;;;;;;1.33;0.70;;;;;;;;;;5001821;28;20035;-83
2022/11/19 06:49:35;;;;;;;1.70;0.90;;;;;;;;;;4992807;28;20097;-83
2022/11/19 06:52:01;;;;;;;2.03;0.65;;;;;;;;;;5001686;28;20034;-83
2022/11/19 06:54:27;;;;;;;0.70;0.70;;;;;;;;;;4985331;28;20110;-83
2022/11/19 06:56:53;;;;;;;1.67;0.77;;;;;;;;;;4990078;28;20030;-83
2022/11/19 06:59:19;;;;;;;0.63;0.63;;;;;;;;;;4987142;28;20027;-83
2022/11/19 07:01:45;;;;;;;0.82;0.57;;;;;;;;;;4985034;28;20045;-83
2022/11/19 07:04:11;;;;;;;0.77;0.60;;;;;;;;;;4986125;28;20630;-83
2022/11/19 07:06:37;;;;;;;0.98;0.65;;;;;;;;;;4987826;28;20028;-83
2022/11/19 07:09:03;;;;;;;0.52;0.45;;;;;;;;;;4996929;28;20066;-83
2022/11/19 07:11:29;;;;;;;0.57;0.57;;;;;;;;;;4992618;28;20027;-83
2022/11/19 07:13:56;;;;;;;3.95;1.02;;;;;;;;;;4984718;28;20043;-83
2022/11/19 07:16:23;;;;;;;1.45;0.60;;;;;;;;;;4986272;28;20034;-83
2022/11/19 07:18:49;;;;;;;1.33;0.80;;;;;;;;;;4989964;28;20038;-84
2022/11/19 07:21:15;;;;;;;0.75;0.75;;;;;;;;;;5003448;28;20042;-83
2022/11/19 07:23:41;;;;;;;2.15;0.95;;;;;;;;;;4994667;28;20058;-83
2022/11/19 07:26:07;;;;;;;0.57;0.57;;;;;;;;;;4984414;28;20073;-83
2022/11/19 07:28:34;;;;;;;3.13;0.77;;;;;;;;;;5002145;28;20026;-83
2022/11/19 07:31:04;;;;;;;1.08;0.73;;;;;;;;;;4989406;28;20126;-82
2022/11/19 07:33:30;;;;;;;1.55;0.93;;;;;;;;;;4995718;28;20030;-84
2022/11/19 07:35:56;;;;;;;0.68;0.68;;;;;;;;;;5011082;28;20129;-84
2022/11/19 07:38:22;;;;;;;0.65;0.55;;;;;;;;;;4995731;28;20045;-84
2022/11/19 07:40:55;;;;;;;1.45;0.63;;;;;;;;;;4986969;28;20027;-84
2022/11/19 07:43:21;;;;;;;1.00;0.75;;;;;;;;;;5008277;28;20282;-83
2022/11/19 07:45:47;;;;;;;2.08;0.93;;;;;;;;;;4990322;28;20035;-83
2022/11/19 07:48:14;;;;;;;0.70;0.70;;;;;;;;;;5003784;28;20061;-84
2022/11/19 07:50:40;;;;;;;1.67;0.95;;;;;;;;;;5013330;28;20058;-83
2022/11/19 07:53:09;;;;;;;1.15;0.90;;;;;;;;;;5006984;28;20090;-83
2022/11/19 07:55:36;;;;;;;1.00;0.85;;;;;;;;;;4989904;28;20043;-83
2022/11/19 07:58:02;;;;;;;1.83;1.27;;;;;;;;;;4995186;28;20086;-83
2022/11/19 08:00:28;;;;;;;1.92;1.40;;;;;;;;;;4990115;28;20050;-83
2022/11/19 08:02:54;;;;;;;1.75;1.65;;;;;;;;;;4993956;28;20031;-83
2022/11/19 08:05:20;;;;;;;2.50;1.17;;;;;;;;;;5009473;28;20046;-83
2022/11/19 08:07:46;;;;;;;0.73;0.73;;;;;;;;;;5009226;28;20074;-82
2022/11/19 08:10:12;;;;;;;0.85;0.55;;;;;;;;;;5014989;28;20037;-83
2022/11/19 08:12:38;;;;;;;1.10;0.70;;;;;;;;;;5013380;28;20041;-83
2022/11/19 08:15:04;;;;;;;1.05;0.65;;;;;;;;;;4995607;28;20038;-83
2022/11/19 08:20:16;;;;;;;1.17;0.70;;;;;;;;;;4996340;28;20154;-83
2022/11/19 08:22:42;;;;;;;1.20;0.98;;;;;;;;;;5007019;28;20029;-83
2022/11/19 08:25:08;;;;;;;1.08;0.80;;;;;;;;;;5005986;28;20027;-84
2022/11/19 08:27:34;;;;;;;1.20;0.80;;;;;;;;;;5001765;28;20039;-83
2022/11/19 08:30:00;;;;;;;0.65;0.47;;;;;;;;;;4997598;28;20031;-83
2022/11/19 08:32:26;;;;;;;0.90;0.70;;;;;;;;;;4999770;28;20066;-83
2022/11/19 08:34:52;;;;;;;2.08;0.52;;;;;;;;;;5013986;28;20324;-83
2022/11/19 08:37:18;;;;;;;2.35;0.85;;;;;;;;;;5014019;28;20019;-84
2022/11/19 08:39:44;;;;;;;1.15;0.77;;;;;;;;;;5016598;28;20035;-84
2022/11/19 08:44:57;;;;;;;2.85;0.70;;;;;;;;;;4997930;28;20086;-84
2022/11/19 08:47:23;;;;;;;2.10;1.10;;;;;;;;;;5012484;28;20045;-83
2022/11/19 08:49:49;;;;;;;3.05;0.98;;;;;;;;;;4997929;28;20030;-83
2022/11/19 08:52:15;;;;;;;1.17;0.90;;;;;;;;;;5001795;28;20056;-83
2022/11/19 08:54:41;;;;;;;0.55;0.55;;;;;;;;;;4999108;28;20039;-83
2022/11/19 08:57:07;;;;;;;3.05;0.68;;;;;;;;;;4997040;28;20098;-84
2022/11/19 08:59:34;;;;;;;1.23;0.70;;;;;;;;;;5004349;28;20043;-83
2022/11/19 09:02:00;;;;;;;2.67;0.65;;;;;;;;;;4999069;28;20022;-84
2022/11/19 09:04:26;;;;;;;1.55;0.60;;;;;;;;;;5002602;28;20023;-83
2022/11/19 09:06:52;;;;;;;1.40;0.70;;;;;;;;;;4988433;28;20030;-82
2022/11/19 09:09:18;;;;;;;1.67;1.00;;;;;;;;;;4998579;28;20029;-83
2022/11/19 09:11:44;;;;;;;1.40;0.80;;;;;;;;;;4999234;28;20031;-83
2022/11/19 09:14:10;;;;;;;1.02;0.80;;;;;;;;;;4989510;28;20034;-83
2022/11/19 09:16:37;;;;;;;1.98;0.77;;;;;;;;;;4991430;28;20019;-83
2022/11/19 09:19:03;;;;;;;2.13;0.70;;;;;;;;;;4998077;28;20086;-82
2022/11/19 09:21:29;;;;;;;1.95;0.63;;;;;;;;;;4999304;28;20038;-82
2022/11/19 09:23:55;;;;;;;1.33;0.90;;;;;;;;;;4999260;28;20070;-83
2022/11/19 09:26:21;;;;;;;1.20;0.82;;;;;;;;;;4998245;28;20729;-81
2022/11/19 09:28:48;;;;;;;2.28;1.10;;;;;;;;;;4988858;28;20031;-82
2022/11/19 09:31:15;;;;;;;0.68;0.68;;;;;;;;;;4987633;28;20042;-83
2022/11/19 09:33:42;;;;;;;0.60;0.60;;;;;;;;;;4989579;28;20035;-83
2022/11/19 09:36:10;;;;;;;1.23;0.50;;;;;;;;;;4987302;28;20189;-83
2022/11/19 09:38:36;;;;;;;0.60;0.60;;;;;;;;;;4988387;28;20495;-83
2022/11/19 09:41:18;;;;;;;3.03;0.55;;;;;;;;;;4988043;28;20085;-83
2022/11/19 09:43:44;;;;;;;;;;;;;;;;;;4989362;28;20069;-83
2022/11/19 09:46:15;;;;;;;1.52;0.73;;;;;;;;;;4989350;28;19910;-83
2022/11/19 09:48:41;;;;;;;0.40;0.40;;;;;;;;;;4988494;28;20034;-83
2022/11/19 09:51:12;;;;;;;1.45;0.90;;;;;;;;;;4985252;28;20038;-83
2022/11/19 09:53:45;;;;;;;3.60;1.20;;;;;;;;;;4985327;28;20053;-83
2022/11/19 09:56:13;;;;;;;;;;;;;;;;;;4987784;28;20050;-83
2022/11/19 09:58:41;;;;;;;1.67;0.80;;;;;;;;;;4995024;28;19910;-83
2022/11/19 10:01:12;;;;;;;1.45;0.60;;;;;;;;;;4990406;28;20042;-83
2022/11/19 10:03:40;;;;;;;3.85;0.77;;;;;;;;;;4988421;28;20031;-83
2022/11/19 10:06:06;;;;;;;1.30;0.80;;;;;;;;;;4990408;28;20395;-83
2022/11/19 10:08:47;;;;;;;1.00;0.70;;;;;;;;;;4995959;28;20030;-83
2022/11/19 10:11:28;;;;;;;4.45;1.48;;;;;;;;;;4988002;28;20045;-82
2022/11/19 10:13:53;;;;;;;4.20;1.95;;;;;;;;;;4988555;28;20030;-83
2022/11/19 10:16:30;;;;;;;1.25;0.70;;;;;;;;;;4986217;28;20090;-83
2022/11/19 10:18:56;;;;;;;2.67;0.90;;;;;;;;;;4991325;28;20038;-83
2022/11/19 10:21:35;;;;;;;2.70;0.70;;;;;;;;;;4994158;28;20049;-83
2022/11/19 10:24:21;;;;;;;1.17;0.77;;;;;;;;;;5008257;28;20034;-83
2022/11/19 10:26:50;;;;;;;2.15;0.93;;;;;;;;;;5007286;28;20027;-83
2022/11/19 10:29:18;;;;;;;4.82;1.42;;;;;;;;;;5005253;28;20021;-82
2022/11/19 10:31:46;;;;;;;2.25;1.02;;;;;;;;;;5002085;28;20030;-83
2022/11/19 10:34:22;;;;;;;1.27;0.60;;;;;;;;;;5007606;28;20026;-82
2022/11/19 10:36:59;;;;;;;1.33;0.70;;;;;;;;;;5011056;28;20078;-81
2022/11/19 10:39:28;;;;;;;1.85;0.73;;;;;;;;;;4987463;28;20034;-83
2022/11/19 10:41:57;;;;;;;1.88;0.60;;;;;;;;;;4988225;28;20022;-82
2022/11/19 10:44:36;;;;;;;1.27;0.57;;;;;;;;;;4994909;28;20076;-82
2022/11/19 10:47:04;;;;;;;1.13;0.60;;;;;;;;;;5007043;28;20026;-83
2022/11/19 10:49:31;;;;;;;3.17;0.98;;;;;;;;;;5008442;28;20227;-83
2022/11/19 10:51:57;;;;;;;1.75;0.60;;;;;;;;;;5009543;28;20039;-83
2022/11/19 10:54:27;;;;;;;6.05;0.95;;;;;;;;;;4994074;28;20037;-82
2022/11/19 10:56:54;;;;;;;1.13;0.88;;;;;;;;;;4994020;28;20085;-82
2022/11/19 10:59:25;;;;;;;0.88;0.80;;;;;;;;;;4987175;28;20066;-83
2022/11/19 11:01:53;;;;;;;1.30;0.93;;;;;;;;;;4985399;28;20042;-82
2022/11/19 11:04:24;;;;;;;2.42;0.63;;;;;;;;;;4981576;28;20094;-83
2022/11/19 11:06:53;;;;;;;0.82;0.73;;;;;;;;;;4978200;28;20030;-82
2022/11/19 11:09:39;;;;;;;1.58;0.68;;;;;;;;;;5010635;28;20030;-82
2022/11/19 11:15:24;;;;;;;2.05;1.60;;;;;;;;;;4963812;29;20046;-84
2022/11/19 11:18:04;;;;;;;57.75;19.10;;;;;;;;;;4974792;28;20119;-83
2022/11/19 11:20:31;;;;;;;66.65;27.10;;;;;;;;;;4961272;29;20042;-84
2022/11/19 11:23:15;;;;;;;26.40;13.80;;;;;;;;;;4972883;28;20049;-82
2022/11/19 11:25:51;;;;;;;38.55;20.30;;;;;;;;;;5001110;23;20174;-82
2022/11/19 11:28:18;;;;;;;3.25;2.70;;;;;;;;;;4957930;29;20373;-83
2022/11/19 11:30:57;;;;;;;4.05;2.60;;;;;;;;;;4941672;29;20030;-82
2022/11/19 11:33:23;;;;;;;26.88;14.68;;;;;;;;;;4959440;28;20031;-83
2022/11/19 11:35:52;;;;;;;20.20;13.02;;;;;;;;;;4978090;28;20809;-83
2022/11/19 11:38:25;;;;;;;4.60;3.78;;;;;;;;;;4959814;28;20055;-81
2022/11/19 11:41:11;;;;;;;2.80;1.40;;;;;;;;;;4978733;28;20031;-84
2022/11/19 11:43:39;;;;;;;1.50;1.40;;;;;;;;;;4976269;28;20050;-83
2022/11/19 11:46:10;;;;;;;8.05;6.32;;;;;;;;;;4959945;28;20026;-83
2022/11/19 11:48:48;;;;;;;4.43;3.20;;;;;;;;;;4962390;28;20034;-83
2022/11/19 11:51:27;;;;;;;2.22;1.00;;;;;;;;;;4960819;28;20045;-83
2022/11/19 11:54:16;;;;;;;0.75;0.50;;;;;;;;;;4978108;28;20097;-83
2022/11/19 11:56:42;;;;;;;1.50;0.60;;;;;;;;;;4977611;28;20236;-83
2022/11/19 11:59:20;;;;;;;0.30;0.30;;;;;;;;;;4960685;28;20037;-83
2022/11/19 12:01:53;;;;;;;0.85;0.85;;;;;;;;;;4977695;28;20030;-82
2022/11/19 12:04:19;;;;;;;0.60;0.60;;;;;;;;;;4960701;28;20022;-83
2022/11/19 12:06:49;;;;;;;1.30;0.77;;;;;;;;;;4976861;28;20026;-83
2022/11/19 12:09:27;;;;;;;1.42;1.00;;;;;;;;;;4959534;28;20026;-82
2022/11/19 12:12:12;;;;;;;2.00;1.13;;;;;;;;;;4978522;28;20027;-82
2022/11/19 12:14:43;;;;;;;4.40;0.70;;;;;;;;;;4967760;28;20023;-84
2022/11/19 12:17:18;;;;;;;2.20;1.08;;;;;;;;;;4963758;28;20023;-83
2022/11/19 12:19:47;;;;;;;0.90;0.70;;;;;;;;;;4999505;28;20027;-81
2022/11/19 12:22:27;;;;;;;1.10;0.88;;;;;;;;;;4981094;28;20434;-82
2022/11/19 12:25:28;;;;;;;2.00;1.00;;;;;;;;;;4964193;28;20037;-81
2022/11/19 12:27:54;;;;;;;4.45;0.90;;;;;;;;;;4904901;29;20069;-83
2022/11/19 12:30:22;;;;;;;1.15;0.80;;;;;;;;;;4953802;29;20043;-83
2022/11/19 12:33:07;;;;;;;20.33;8.32;;;;;;;;;;4969461;29;20040;-82
2022/11/19 12:35:39;;;;;;;13.45;5.72;;;;;;;;;;4965290;29;20345;-83
2022/11/19 12:38:14;;;;;;;8.77;4.47;;;;;;;;;;4960335;29;20130;-83
2022/11/19 12:40:51;;;;;;;9.07;4.95;;;;;;;;;;4960997;29;20038;-83
2022/11/19 12:43:23;;;;;;;7.75;4.60;;;;;;;;;;4978032;28;20030;-81
2022/11/19 12:46:08;;;;;;;3.45;3.03;;;;;;;;;;4964779;28;20031;-84
2022/11/19 12:48:37;;;;;;;5.65;2.92;;;;;;;;;;4965566;28;20027;-83
2022/11/19 12:51:04;;;;;;;2.58;1.98;;;;;;;;;;4965041;28;20031;-84
2022/11/19 12:53:49;;;;;;;4.45;3.10;;;;;;;;;;4988704;28;20039;-84
2022/11/19 12:56:34;;;;;;;3.10;2.03;;;;;;;;;;4992092;28;20109;-82
2022/11/19 12:59:06;;;;;;;3.22;1.30;;;;;;;;;;4970176;28;20041;-82
2022/11/19 13:01:37;;;;;;;1.70;1.60;;;;;;;;;;4994836;28;20080;-85
2022/11/19 13:04:06;;;;;;;2.78;1.38;;;;;;;;;;4983351;28;20023;-84
2022/11/19 13:06:44;;;;;;;2.67;0.95;;;;;;;;;;4983224;28;20026;-86
2022/11/19 13:09:29;;;;;;;13.60;1.67;;;;;;;;;;4983081;28;20059;-83
2022/11/19 13:11:59;;;;;;;4.72;1.25;;;;;;;;;;4982992;28;20043;-86
2022/11/19 13:14:35;;;;;;;1.42;1.05;;;;;;;;;;4999752;28;20082;-87
2022/11/19 13:17:03;;;;;;;2.40;0.80;;;;;;;;;;4990685;28;20046;-82
2022/11/19 13:19:32;;;;;;;1.88;0.85;;;;;;;;;;4984305;28;20033;-83
2022/11/19 13:22:11;;;;;;;3.95;1.67;;;;;;;;;;4992876;28;20033;-85
2022/11/19 13:24:42;;;;;;;2.20;0.90;;;;;;;;;;4975793;28;20135;-83
2022/11/19 13:27:15;;;;;;;2.88;1.15;;;;;;;;;;4981595;28;20101;-84
2022/11/19 13:29:47;;;;;;;2.13;1.00;;;;;;;;;;4994939;28;20031;-84
2022/11/19 13:32:26;;;;;;;1.55;1.15;;;;;;;;;;4976903;28;20034;-83
2022/11/19 13:35:11;;;;;;;4.30;1.23;;;;;;;;;;4994149;28;20023;-82
2022/11/19 13:37:37;;;;;;;2.30;1.30;;;;;;;;;;4995141;28;20042;-84
2022/11/19 13:40:06;;;;;;;1.45;1.00;;;;;;;;;;4968342;28;20034;-84
2022/11/19 13:45:18;;;;;;;3.40;0.70;;;;;;;;;;4981698;28;20038;-84
2022/11/19 13:47:51;;;;;;;3.03;0.65;;;;;;;;;;4967013;28;20132;-84
2022/11/19 13:53:43;;;;;;;0.95;0.50;;;;;;;;;;4922408;29;20130;-85
2022/11/19 13:56:17;;;;;;;2.80;0.63;;;;;;;;;;4975905;28;20122;-85
2022/11/19 13:59:02;;;;;;;2.28;0.70;;;;;;;;;;4978955;28;20074;-85
2022/11/19 14:01:38;;;;;;;2.22;0.98;;;;;;;;;;4980472;28;20034;-85
2022/11/19 14:04:19;;;;;;;3.60;1.23;;;;;;;;;;4963902;28;20026;-83
2022/11/19 14:07:09;;;;;;;2.75;0.82;;;;;;;;;;4979250;28;20122;-83
2022/11/19 14:09:49;;;;;;;2.88;1.40;;;;;;;;;;4983599;28;20061;-83
2022/11/19 14:12:46;;;;;;;1.73;1.02;;;;;;;;;;4962051;28;20447;-84
2022/11/19 14:27:02;;;;;;;7.72;3.85;;;;;;;;;;4984775;28;20495;-85
2022/11/19 14:29:34;;;;;;;3.35;1.77;;;;;;;;;;4975719;28;20035;-85
2022/11/19 14:32:09;;;;;;;2.15;1.50;;;;;;;;;;4992267;28;20031;-84
2022/11/19 14:34:38;;;;;;;1.52;1.17;;;;;;;;;;4976327;28;20030;-84
2022/11/19 14:37:19;;;;;;;3.15;1.13;;;;;;;;;;4977928;28;20049;-83
2022/11/19 14:39:53;;;;;;;2.42;1.02;;;;;;;;;;4992095;28;20022;-84
2022/11/19 14:48:28;;;;;;;2.58;1.15;;;;;;;;;;4978828;28;20034;-81
2022/11/19 14:51:07;;;;;;;5.10;1.08;;;;;;;;;;4977855;28;20118;-83
2022/11/19 14:53:56;;;;;;;2.05;0.95;;;;;;;;;;4979777;28;20073;-85
2022/11/19 14:56:34;;;;;;;3.10;0.90;;;;;;;;;;4976987;28;20007;-84
2022/11/19 14:59:15;;;;;;;4.05;1.10;;;;;;;;;;4969601;28;20098;-83
2022/11/19 15:02:08;;;;;;;2.22;0.80;;;;;;;;;;4990045;28;20034;-81
2022/11/19 15:04:33;;;;;;;;;;;;;;;;;;4968061;28;20039;-80
2022/11/19 15:07:00;;;;;;;2.60;1.08;;;;;;;;;;4995177;28;19909;-82
2022/11/19 15:09:45;;;;;;;1.77;1.00;;;;;;;;;;4995789;28;20066;-83
2022/11/19 15:12:11;;;;;;;3.33;1.17;;;;;;;;;;4979451;28;20043;-83
2022/11/19 15:15:03;;;;;;;3.58;0.98;;;;;;;;;;4990998;28;20039;-84
2022/11/19 15:17:25;;;;;;;4.32;1.10;;;;;;;;;;4980591;28;20230;-84
2022/11/19 15:20:01;;;;;;;1.42;0.80;;;;;;;;;;4964577;28;20030;-83
2022/11/19 15:22:46;;;;;;;3.63;1.00;;;;;;;;;;4982402;28;20026;-85
2022/11/19 15:25:12;;;;;;;3.80;1.10;;;;;;;;;;4973480;28;20030;-83
2022/11/19 15:27:51;;;;;;;6.70;1.40;;;;;;;;;;4969724;28;20027;-84
2022/11/19 15:30:17;;;;;;;1.15;1.05;;;;;;;;;;4981393;28;20029;-84
2022/11/19 15:33:01;;;;;;;3.60;1.05;;;;;;;;;;4984311;28;20027;-82
2022/11/19 15:35:33;;;;;;;1.92;1.00;;;;;;;;;;4981540;28;20408;-83
2022/11/19 15:38:18;;;;;;;57.10;17.50;;;;;;;;;;4981332;28;20118;-83
2022/11/19 15:40:44;;;;;;;17.63;6.78;;;;;;;;;;4980960;28;20395;-83
2022/11/19 15:43:29;;;;;;;7.13;2.95;;;;;;;;;;4978706;28;20086;-83
2022/11/19 15:46:06;;;;;;;4.25;2.03;;;;;;;;;;4979502;28;20070;-82
2022/11/19 15:48:43;;;;;;;3.58;2.20;;;;;;;;;;4982493;28;20070;-83